createdAt,value
2022-09-04T00:01:01.460Z,13.677368
2022-09-04T00:02:11.084Z,13.667297
2022-09-04T00:03:19.826Z,13.667297
2022-09-04T00:04:27.594Z,13.667297
2022-09-04T00:05:37.150Z,13.647156
2022-09-04T00:06:44.827Z,13.627014
2022-09-04T00:07:53.487Z,13.616943
2022-09-04T00:09:03.206Z,13.627014
2022-09-04T00:10:11.875Z,13.627014
2022-09-04T00:11:21.577Z,13.647156
2022-09-04T00:12:30.270Z,13.647156
2022-09-04T00:13:37.935Z,13.667297
2022-09-04T00:14:47.662Z,13.647156
2022-09-04T00:15:56.354Z,13.647156
2022-09-04T00:17:06.020Z,13.627014
2022-09-04T00:18:14.695Z,13.647156
2022-09-04T00:19:23.364Z,13.627014
2022-09-04T00:20:34.045Z,13.616943
2022-09-04T00:21:41.723Z,13.566589
2022-09-04T00:22:51.374Z,13.566589
2022-09-04T00:24:01.107Z,13.556519
2022-09-04T00:25:08.795Z,13.556519
2022-09-04T00:26:21.073Z,13.536377
2022-09-04T00:27:27.237Z,13.536377
2022-09-04T00:28:36.898Z,13.516235
2022-09-04T00:29:46.596Z,13.526306
2022-09-04T00:30:55.298Z,13.516235
2022-09-04T00:32:04.976Z,13.516235
2022-09-04T00:33:15.825Z,13.526306
2022-09-04T00:34:22.310Z,13.526306
2022-09-04T00:35:31.965Z,13.526306
2022-09-04T00:36:40.640Z,13.536377
2022-09-04T00:37:51.338Z,13.526306
2022-09-04T00:39:01.034Z,13.526306
2022-09-04T00:40:10.694Z,13.526306
2022-09-04T00:41:20.374Z,13.526306
2022-09-04T00:42:30.049Z,13.536377
2022-09-04T00:43:37.761Z,13.526306
2022-09-04T00:44:47.539Z,13.516235
2022-09-04T00:45:56.269Z,13.516235
2022-09-04T00:47:04.877Z,13.496094
2022-09-04T00:48:14.574Z,13.516235
2022-09-04T00:49:22.358Z,13.526306
2022-09-04T00:50:32.055Z,13.526306
2022-09-04T00:51:40.746Z,13.526306
2022-09-04T00:52:48.429Z,13.556519
2022-09-04T00:53:59.089Z,13.556519
2022-09-04T00:55:07.834Z,13.566589
2022-09-04T00:56:16.485Z,13.556519
2022-09-04T00:57:26.166Z,13.596802
2022-09-04T00:58:33.864Z,13.586731
2022-09-04T00:59:43.531Z,13.596802
2022-09-04T01:00:53.280Z,13.647156
2022-09-04T01:02:02.077Z,13.627014
2022-09-04T01:03:11.619Z,13.627014
2022-09-04T01:04:21.393Z,13.616943
2022-09-04T01:05:30.055Z,13.627014
2022-09-04T01:06:39.780Z,13.627014
2022-09-04T01:07:47.413Z,13.627014
2022-09-04T01:08:57.121Z,13.667297
2022-09-04T01:10:05.859Z,13.667297
2022-09-04T01:11:14.594Z,13.677368
2022-09-04T01:12:24.343Z,13.667297
2022-09-04T01:13:32.000Z,13.69751
2022-09-04T01:14:40.652Z,13.69751
2022-09-04T01:15:51.345Z,13.69751
2022-09-04T01:17:01.083Z,13.69751
2022-09-04T01:18:10.781Z,13.707581
2022-09-04T01:19:20.457Z,13.737793
2022-09-04T01:20:28.167Z,13.737793
2022-09-04T01:21:37.872Z,13.717651
2022-09-04T01:22:46.548Z,13.747864
2022-09-04T01:23:55.247Z,13.737793
2022-09-04T01:25:04.919Z,13.768005
2022-09-04T01:26:12.570Z,13.747864
2022-09-04T01:27:22.276Z,13.768005
2022-09-04T01:28:30.944Z,13.778076
2022-09-04T01:29:38.611Z,13.788147
2022-09-04T01:30:48.292Z,13.788147
2022-09-04T01:31:57.009Z,13.82843
2022-09-04T01:33:05.654Z,13.82843
2022-09-04T01:34:15.482Z,13.82843
2022-09-04T01:35:24.240Z,13.848572
2022-09-04T01:36:33.908Z,13.858643
2022-09-04T01:37:42.584Z,13.858643
2022-09-04T01:38:51.289Z,13.868713
2022-09-04T01:40:01.035Z,13.868713
2022-09-04T01:41:09.692Z,13.868713
2022-09-04T01:42:17.360Z,13.888855
2022-09-04T01:43:27.059Z,13.888855
2022-09-04T01:44:34.732Z,13.898926
2022-09-04T01:45:44.430Z,13.919067
2022-09-04T01:46:53.219Z,13.94928
2022-09-04T01:48:02.996Z,13.94928
2022-09-04T01:49:12.661Z,13.929138
2022-09-04T01:50:20.339Z,13.94928
2022-09-04T01:51:29.091Z,13.94928
2022-09-04T01:52:38.824Z,13.959351
2022-09-04T01:53:46.539Z,13.959351
2022-09-04T01:54:56.216Z,13.969421
2022-09-04T01:56:04.908Z,13.969421
2022-09-04T01:57:13.574Z,13.969421
2022-09-04T01:58:23.331Z,13.969421
2022-09-04T01:59:31.983Z,13.989563
2022-09-04T02:00:40.707Z,13.969421
2022-09-04T02:01:50.406Z,13.989563
2022-09-04T02:02:58.996Z,13.989563
2022-09-04T02:04:08.723Z,13.999634
2022-09-04T02:05:17.379Z,13.999634
2022-09-04T02:06:25.042Z,13.999634
2022-09-04T02:07:34.729Z,13.999634
2022-09-04T02:08:42.417Z,13.999634
2022-09-04T02:09:53.859Z,13.999634
2022-09-04T02:11:00.827Z,13.999634
2022-09-04T02:12:09.573Z,13.989563
2022-09-04T02:13:20.201Z,13.989563
2022-09-04T02:14:29.901Z,13.989563
2022-09-04T02:15:39.601Z,13.989563
2022-09-04T02:16:48.321Z,13.989563
2022-09-04T02:17:55.976Z,13.989563
2022-09-04T02:19:05.624Z,13.999634
2022-09-04T02:20:13.285Z,13.999634
2022-09-04T02:21:21.974Z,13.969421
2022-09-04T02:22:31.891Z,13.969421
2022-09-04T02:23:39.573Z,13.969421
2022-09-04T02:24:49.288Z,13.969421
2022-09-04T02:25:57.976Z,13.94928
2022-09-04T02:27:05.709Z,13.989563
2022-09-04T02:28:15.406Z,13.959351
2022-09-04T02:29:24.092Z,13.959351
2022-09-04T02:30:33.727Z,13.969421
2022-09-04T02:31:43.445Z,13.969421
2022-09-04T02:32:52.078Z,13.959351
2022-09-04T02:34:01.748Z,13.94928
2022-09-04T02:35:10.432Z,13.94928
2022-09-04T02:36:19.139Z,13.919067
2022-09-04T02:37:28.834Z,13.919067
2022-09-04T02:38:38.560Z,13.919067
2022-09-04T02:39:48.287Z,13.888855
2022-09-04T02:40:57.875Z,13.919067
2022-09-04T02:42:06.536Z,13.898926
2022-09-04T02:43:15.227Z,13.898926
2022-09-04T02:44:23.897Z,13.898926
2022-09-04T02:45:33.565Z,13.929138
2022-09-04T02:46:43.548Z,13.929138
2022-09-04T02:47:50.919Z,13.929138
2022-09-04T02:48:59.576Z,13.94928
2022-09-04T02:50:09.298Z,13.929138
2022-09-04T02:51:17.970Z,13.929138
2022-09-04T02:52:27.640Z,13.929138
2022-09-04T02:53:37.344Z,13.929138
2022-09-04T02:54:46.087Z,13.959351
2022-09-04T02:55:55.823Z,13.94928
2022-09-04T02:57:03.477Z,13.94928
2022-09-04T02:58:13.162Z,13.929138
2022-09-04T02:59:22.859Z,13.94928
2022-09-04T03:00:30.576Z,13.929138
2022-09-04T03:01:39.330Z,13.919067
2022-09-04T03:02:48.949Z,13.929138
2022-09-04T03:03:57.631Z,13.929138
2022-09-04T03:05:07.308Z,13.929138
2022-09-04T03:06:14.976Z,13.919067
2022-09-04T03:07:22.662Z,13.898926
2022-09-04T03:08:34.397Z,13.898926
2022-09-04T03:09:40.962Z,13.888855
2022-09-04T03:10:50.645Z,13.888855
2022-09-04T03:11:59.334Z,13.868713
2022-09-04T03:13:07.112Z,13.868713
2022-09-04T03:14:16.823Z,13.858643
2022-09-04T03:15:25.464Z,13.858643
2022-09-04T03:16:33.186Z,13.848572
2022-09-04T03:17:42.812Z,13.82843
2022-09-04T03:18:53.510Z,13.808289
2022-09-04T03:20:03.183Z,13.808289
2022-09-04T03:21:11.855Z,13.788147
2022-09-04T03:22:21.514Z,13.778076
2022-09-04T03:23:31.190Z,13.737793
2022-09-04T03:24:38.875Z,13.747864
2022-09-04T03:25:47.540Z,13.717651
2022-09-04T03:26:57.208Z,13.707581
2022-09-04T03:28:03.869Z,13.69751
2022-09-04T03:29:13.528Z,13.677368
2022-09-04T03:30:22.221Z,13.667297
2022-09-04T03:31:30.977Z,13.647156
2022-09-04T03:32:40.637Z,13.627014
2022-09-04T03:33:49.301Z,13.616943
2022-09-04T03:34:58.058Z,13.616943
2022-09-04T03:36:07.775Z,13.596802
2022-09-04T03:37:16.424Z,13.596802
2022-09-04T03:38:26.165Z,13.586731
2022-09-04T03:39:34.848Z,13.566589
2022-09-04T03:40:43.449Z,13.526306
2022-09-04T03:41:53.166Z,13.496094
2022-09-04T03:43:02.854Z,13.496094
2022-09-04T03:44:12.552Z,13.496094
2022-09-04T03:45:22.240Z,13.526306
2022-09-04T03:46:31.006Z,13.516235
2022-09-04T03:47:40.699Z,13.496094
2022-09-04T03:48:50.379Z,13.496094
2022-09-04T03:49:58.052Z,13.486023
2022-09-04T03:51:07.762Z,13.465881
2022-09-04T03:52:17.509Z,13.455811
2022-09-04T03:53:26.260Z,13.435669
2022-09-04T03:54:36.920Z,13.415527
2022-09-04T03:55:45.648Z,13.435669
2022-09-04T03:56:55.313Z,13.435669
2022-09-04T03:58:03.992Z,13.435669
2022-09-04T03:59:13.751Z,13.455811
2022-09-04T04:00:23.407Z,13.415527
2022-09-04T04:01:31.131Z,13.455811
2022-09-04T04:02:39.848Z,13.455811
2022-09-04T04:03:49.490Z,13.455811
2022-09-04T04:04:59.194Z,13.455811
2022-09-04T04:06:08.861Z,13.455811
2022-09-04T04:07:17.527Z,13.435669
2022-09-04T04:08:26.274Z,13.455811
2022-09-04T04:09:35.935Z,13.435669
2022-09-04T04:10:43.628Z,13.455811
2022-09-04T04:11:52.341Z,13.455811
2022-09-04T04:13:01.077Z,13.465881
2022-09-04T04:14:10.748Z,13.435669
2022-09-04T04:15:20.462Z,13.465881
2022-09-04T04:16:29.261Z,13.465881
2022-09-04T04:17:38.928Z,13.486023
2022-09-04T04:18:47.589Z,13.486023
2022-09-04T04:19:56.276Z,13.486023
2022-09-04T04:21:03.996Z,13.465881
2022-09-04T04:22:11.694Z,13.486023
2022-09-04T04:23:20.391Z,13.486023
2022-09-04T04:24:30.075Z,13.496094
2022-09-04T04:25:38.736Z,13.496094
2022-09-04T04:26:52.880Z,13.526306
2022-09-04T04:27:59.062Z,13.536377
2022-09-04T04:29:08.719Z,13.526306
2022-09-04T04:30:18.431Z,13.526306
2022-09-04T04:31:26.185Z,13.526306
2022-09-04T04:32:34.827Z,13.516235
2022-09-04T04:33:44.577Z,13.516235
2022-09-04T04:34:54.248Z,13.516235
2022-09-04T04:36:03.914Z,13.536377
2022-09-04T04:37:12.589Z,13.526306
2022-09-04T04:38:21.262Z,13.526306
2022-09-04T04:39:30.978Z,13.526306
2022-09-04T04:40:38.627Z,13.536377
2022-09-04T04:41:47.304Z,13.536377
2022-09-04T04:42:56.998Z,13.536377
2022-09-04T04:44:04.672Z,13.536377
2022-09-04T04:45:14.361Z,13.566589
2022-09-04T04:46:23.082Z,13.586731
2022-09-04T04:47:31.701Z,13.616943
2022-09-04T04:48:41.424Z,13.616943
2022-09-04T04:49:49.112Z,13.616943
2022-09-04T04:50:58.794Z,13.627014
2022-09-04T04:52:08.469Z,13.647156
2022-09-04T04:53:16.114Z,13.647156
2022-09-04T04:54:25.807Z,13.667297
2022-09-04T04:55:35.535Z,13.69751
2022-09-04T04:56:44.226Z,13.69751
2022-09-04T04:57:53.888Z,13.717651
2022-09-04T04:59:02.539Z,13.737793
2022-09-04T05:00:11.205Z,13.747864
2022-09-04T05:01:21.943Z,13.768005
2022-09-04T05:02:30.714Z,13.788147
2022-09-04T05:03:40.290Z,13.808289
2022-09-04T05:04:48.965Z,13.808289
2022-09-04T05:05:56.653Z,13.848572
2022-09-04T05:07:06.321Z,13.848572
2022-09-04T05:08:14.079Z,13.868713
2022-09-04T05:09:22.760Z,13.898926
2022-09-04T05:10:32.430Z,13.919067
2022-09-04T05:11:41.114Z,13.959351
2022-09-04T05:12:50.785Z,13.959351
2022-09-04T05:13:59.478Z,13.969421
2022-09-04T05:15:09.151Z,13.999634
2022-09-04T05:16:19.041Z,14.039917
2022-09-04T05:17:26.501Z,14.0802
2022-09-04T05:18:35.186Z,14.110413
2022-09-04T05:19:44.910Z,14.120483
2022-09-04T05:20:54.557Z,14.150696
2022-09-04T05:22:04.213Z,14.170837
2022-09-04T05:23:12.912Z,14.150696
2022-09-04T05:24:23.563Z,14.180908
2022-09-04T05:25:33.254Z,14.180908
2022-09-04T05:26:40.899Z,14.20105
2022-09-04T05:27:50.575Z,14.221191
2022-09-04T05:29:00.245Z,14.221191
2022-09-04T05:30:07.898Z,14.180908
2022-09-04T05:31:17.631Z,14.221191
2022-09-04T05:32:27.271Z,14.221191
2022-09-04T05:33:34.920Z,14.221191
2022-09-04T05:34:44.591Z,14.221191
2022-09-04T05:35:53.283Z,14.221191
2022-09-04T05:37:01.960Z,14.20105
2022-09-04T05:38:11.632Z,14.221191
2022-09-04T05:39:20.336Z,14.221191
2022-09-04T05:40:29.986Z,14.20105
2022-09-04T05:41:39.663Z,14.20105
2022-09-04T05:42:48.482Z,14.231262
2022-09-04T05:43:58.204Z,14.231262
2022-09-04T05:45:06.855Z,14.251404
2022-09-04T05:46:16.617Z,14.251404
2022-09-04T05:47:29.953Z,14.261475
2022-09-04T05:48:34.947Z,14.281616
2022-09-04T05:49:44.597Z,14.281616
2022-09-04T05:50:54.286Z,14.291687
2022-09-04T05:52:02.943Z,14.301758
2022-09-04T05:53:12.610Z,14.321899
2022-09-04T05:54:21.303Z,14.352112
2022-09-04T05:55:30.962Z,14.412537
2022-09-04T05:56:41.612Z,14.442749
2022-09-04T05:57:49.292Z,14.45282
2022-09-04T05:58:58.964Z,14.513245
2022-09-04T06:00:07.660Z,14.553528
2022-09-04T06:01:16.384Z,14.593811
2022-09-04T06:02:26.325Z,14.634094
2022-09-04T06:03:34.790Z,14.664307
2022-09-04T06:04:44.522Z,14.694519
2022-09-04T06:05:54.208Z,14.724731
2022-09-04T06:07:01.914Z,14.765015
2022-09-04T06:08:11.609Z,14.775085
2022-09-04T06:09:20.290Z,14.805298
2022-09-04T06:10:30.008Z,14.845581
2022-09-04T06:11:39.687Z,14.875793
2022-09-04T06:12:47.356Z,14.95636
2022-09-04T06:13:57.077Z,14.95636
2022-09-04T06:15:05.779Z,15.016785
2022-09-04T06:16:15.535Z,15.036926
2022-09-04T06:17:25.228Z,15.08728
2022-09-04T06:18:33.885Z,15.107422
2022-09-04T06:19:42.571Z,15.177917
2022-09-04T06:20:52.271Z,15.218201
2022-09-04T06:22:01.945Z,15.278625
2022-09-04T06:23:11.807Z,15.308838
2022-09-04T06:24:20.493Z,15.369263
2022-09-04T06:25:29.203Z,15.419617
2022-09-04T06:26:38.961Z,15.490112
2022-09-04T06:27:46.628Z,15.550537
2022-09-04T06:28:56.331Z,15.641174
2022-09-04T06:30:05.980Z,15.701599
2022-09-04T06:31:14.719Z,15.772095
2022-09-04T06:32:24.340Z,15.83252
2022-09-04T06:33:34.087Z,15.903015
2022-09-04T06:34:42.819Z,15.943298
2022-09-04T06:35:52.496Z,16.003723
2022-09-04T06:37:01.190Z,16.054077
2022-09-04T06:38:10.864Z,16.134644
2022-09-04T06:39:20.668Z,16.195068
2022-09-04T06:40:28.307Z,16.285706
2022-09-04T06:41:37.989Z,16.356201
2022-09-04T06:42:46.646Z,16.426697
2022-09-04T06:43:55.409Z,16.537476
2022-09-04T06:45:06.178Z,16.638184
2022-09-04T06:46:16.242Z,16.71875
2022-09-04T06:47:24.758Z,16.809387
2022-09-04T06:48:33.419Z,16.900024
2022-09-04T06:49:41.111Z,16.990662
2022-09-04T06:50:50.812Z,17.061157
2022-09-04T06:51:59.568Z,17.192078
2022-09-04T06:53:09.244Z,17.292786
2022-09-04T06:54:18.917Z,17.34314
2022-09-04T06:55:27.572Z,17.423706
2022-09-04T06:56:37.227Z,17.514343
2022-09-04T06:57:45.929Z,17.564697
2022-09-04T06:58:59.257Z,17.60498
2022-09-04T07:00:05.277Z,17.665405
2022-09-04T07:01:14.089Z,17.756042
2022-09-04T07:02:22.760Z,17.85675
2022-09-04T07:03:32.359Z,17.9776
2022-09-04T07:04:40.125Z,18.128662
2022-09-04T07:05:49.793Z,18.289795
2022-09-04T07:06:59.483Z,18.410645
2022-09-04T07:08:07.184Z,18.491211
2022-09-04T07:09:16.943Z,18.491211
2022-09-04T07:10:24.705Z,18.521423
2022-09-04T07:11:33.422Z,18.531494
2022-09-04T07:12:43.154Z,18.531494
2022-09-04T07:13:51.839Z,18.561707
2022-09-04T07:15:01.593Z,18.60199
2022-09-04T07:16:10.323Z,18.561707
2022-09-04T07:17:18.940Z,18.60199
2022-09-04T07:18:28.629Z,18.622131
2022-09-04T07:19:37.327Z,18.682556
2022-09-04T07:20:46.024Z,18.964539
2022-09-04T07:21:55.736Z,19.447937
2022-09-04T07:23:04.422Z,19.629211
2022-09-04T07:24:12.172Z,19.790344
2022-09-04T07:25:21.872Z,19.891052
2022-09-04T07:26:29.665Z,20.062256
2022-09-04T07:27:38.357Z,20.021973
2022-09-04T07:28:46.060Z,20.132751
2022-09-04T07:29:54.792Z,20.24353
2022-09-04T07:31:04.552Z,20.344238
2022-09-04T07:32:12.214Z,20.283813
2022-09-04T07:33:21.988Z,20.394592
2022-09-04T07:34:29.658Z,20.434875
2022-09-04T07:35:36.303Z,20.434875
2022-09-04T07:36:45.976Z,20.394592
2022-09-04T07:37:53.684Z,20.465088
2022-09-04T07:39:03.368Z,20.434875
2022-09-04T07:40:13.060Z,20.444946
2022-09-04T07:41:20.726Z,20.777283
2022-09-04T07:42:30.906Z,20.99884
2022-09-04T07:43:39.114Z,20.968628
2022-09-04T07:44:46.774Z,21.018982
2022-09-04T07:45:56.487Z,20.948486
2022-09-04T07:47:05.113Z,20.837708
2022-09-04T07:48:13.796Z,20.817566
2022-09-04T07:49:23.604Z,20.807495
2022-09-04T07:50:33.334Z,20.847778
2022-09-04T07:51:43.019Z,20.928345
2022-09-04T07:52:52.688Z,21.018982
2022-09-04T07:54:03.335Z,21.452026
2022-09-04T07:55:14.138Z,21.915283
2022-09-04T07:56:21.837Z,21.945496
2022-09-04T07:57:30.501Z,21.693726
2022-09-04T07:58:40.187Z,21.613159
2022-09-04T07:59:48.891Z,21.522522
2022-09-04T08:00:58.604Z,21.885071
2022-09-04T08:02:07.360Z,21.905212
2022-09-04T08:03:15.958Z,21.99585
2022-09-04T08:04:25.727Z,21.854858
2022-09-04T08:05:33.333Z,21.925354
2022-09-04T08:06:42.055Z,22.096558
2022-09-04T08:07:51.714Z,22.408752
2022-09-04T08:08:59.380Z,22.438965
2022-09-04T08:10:08.043Z,22.620239
2022-09-04T08:11:16.701Z,22.63031
2022-09-04T08:12:26.408Z,22.600098
2022-09-04T08:13:35.081Z,22.479248
2022-09-04T08:14:42.740Z,22.700806
2022-09-04T08:15:52.475Z,22.982788
2022-09-04T08:17:00.093Z,22.902222
2022-09-04T08:18:08.822Z,22.932434
2022-09-04T08:19:18.480Z,22.932434
2022-09-04T08:20:26.225Z,23.083496
2022-09-04T08:21:35.869Z,23.093567
2022-09-04T08:22:44.527Z,23.103638
2022-09-04T08:23:53.235Z,23.435974
2022-09-04T08:25:01.919Z,23.607178
2022-09-04T08:26:09.585Z,23.546753
2022-09-04T08:27:18.271Z,23.405762
2022-09-04T08:28:27.932Z,23.274841
2022-09-04T08:29:36.754Z,23.274841
2022-09-04T08:30:46.456Z,23.456116
2022-09-04T08:31:55.256Z,23.355408
2022-09-04T08:33:03.950Z,23.103638
2022-09-04T08:34:13.612Z,23.174133
2022-09-04T08:35:22.302Z,23.204346
2022-09-04T08:36:30.977Z,23.023071
2022-09-04T08:37:40.648Z,23.00293
2022-09-04T08:38:48.312Z,23.023071
2022-09-04T08:39:58.035Z,23.023071
2022-09-04T08:41:06.651Z,22.942505
2022-09-04T08:42:14.326Z,23.335266
2022-09-04T08:43:24.002Z,23.627319
2022-09-04T08:44:33.692Z,23.728027
2022-09-04T08:45:42.816Z,23.838806
2022-09-04T08:46:52.112Z,23.707886
2022-09-04T08:48:00.741Z,24.080505
2022-09-04T08:49:10.430Z,24.382629
2022-09-04T08:50:20.086Z,24.483337
2022-09-04T08:51:28.751Z,24.453125
2022-09-04T08:52:39.469Z,24.161072
2022-09-04T08:53:47.132Z,24.201355
2022-09-04T08:54:55.822Z,24.181213
2022-09-04T08:56:05.505Z,23.909302
2022-09-04T08:57:13.180Z,23.919373
2022-09-04T08:58:22.882Z,24.291992
2022-09-04T08:59:32.534Z,24.684753
2022-09-04T09:00:41.216Z,24.906311
2022-09-04T09:01:50.939Z,24.886169
2022-09-04T09:02:58.587Z,25.097656
2022-09-04T09:04:07.234Z,25.581055
2022-09-04T09:05:16.905Z,25.732117
2022-09-04T09:06:26.563Z,25.429993
2022-09-04T09:07:36.272Z,25.158081
2022-09-04T09:08:44.958Z,25.007019
2022-09-04T09:09:52.730Z,25.289001
2022-09-04T09:11:01.392Z,25.621338
2022-09-04T09:12:10.115Z,25.983887
2022-09-04T09:13:18.797Z,26.205444
2022-09-04T09:14:28.448Z,26.356506
2022-09-04T09:15:38.186Z,26.14502
2022-09-04T09:16:47.913Z,25.722046
2022-09-04T09:17:56.534Z,25.500488
2022-09-04T09:19:04.203Z,25.359497
2022-09-04T09:20:16.854Z,25.470276
2022-09-04T09:21:23.538Z,25.530701
2022-09-04T09:22:32.335Z,25.228577
2022-09-04T09:23:42.082Z,25.429993
2022-09-04T09:24:51.747Z,25.278931
2022-09-04T09:26:01.399Z,25.309143
2022-09-04T09:27:10.262Z,25.278931
2022-09-04T09:28:18.982Z,25.319214
2022-09-04T09:29:31.486Z,25.278931
2022-09-04T09:30:41.252Z,25.379639
2022-09-04T09:31:49.839Z,24.976807
2022-09-04T09:33:00.623Z,24.553833
2022-09-04T09:34:09.323Z,24.775391
2022-09-04T09:35:18.994Z,25.470276
2022-09-04T09:36:27.689Z,25.913391
2022-09-04T09:37:36.358Z,26.326294
2022-09-04T09:38:46.032Z,26.698914
2022-09-04T09:39:55.716Z,26.970825
2022-09-04T09:41:04.333Z,26.809692
2022-09-04T09:42:14.007Z,26.52771
2022-09-04T09:43:22.731Z,26.447144
2022-09-04T09:44:32.351Z,26.477356
2022-09-04T09:45:42.067Z,26.52771
2022-09-04T09:46:48.676Z,26.557922
2022-09-04T09:47:58.457Z,26.769409
2022-09-04T09:49:13.957Z,26.739197
2022-09-04T09:50:16.880Z,26.547852
2022-09-04T09:51:26.549Z,26.65863
2022-09-04T09:52:34.215Z,26.960754
2022-09-04T09:53:47.174Z,27.323303
2022-09-04T09:54:53.512Z,27.705994
2022-09-04T09:56:01.204Z,28.03833
2022-09-04T09:57:10.870Z,28.370667
2022-09-04T09:58:19.523Z,28.41095
2022-09-04T09:59:28.183Z,28.562012
2022-09-04T10:00:37.833Z,28.330383
2022-09-04T10:01:45.654Z,27.635498
2022-09-04T10:02:55.297Z,27.66571
2022-09-04T10:04:02.940Z,27.846985
2022-09-04T10:05:10.605Z,27.897339
2022-09-04T10:06:20.279Z,27.705994
2022-09-04T10:07:28.064Z,27.363586
2022-09-04T10:08:37.739Z,27.635498
2022-09-04T10:09:45.412Z,27.373657
2022-09-04T10:10:54.070Z,27.293091
2022-09-04T10:12:03.755Z,26.970825
2022-09-04T10:13:11.423Z,26.799622
2022-09-04T10:14:24.973Z,26.849976
2022-09-04T10:15:30.848Z,26.65863
2022-09-04T10:16:39.540Z,26.698914
2022-09-04T10:17:49.193Z,26.437073
2022-09-04T10:18:56.893Z,26.215515
2022-09-04T10:20:06.551Z,26.064453
2022-09-04T10:21:16.275Z,26.27594
2022-09-04T10:22:26.014Z,25.802612
2022-09-04T10:23:36.638Z,25.852966
2022-09-04T10:24:46.341Z,26.326294
2022-09-04T10:25:54.013Z,26.447144
2022-09-04T10:27:03.726Z,26.598206
2022-09-04T10:28:12.411Z,26.749268
2022-09-04T10:29:21.109Z,26.829834
2022-09-04T10:30:30.889Z,27.03125
2022-09-04T10:31:38.537Z,27.051392
2022-09-04T10:32:48.213Z,27.001038
2022-09-04T10:33:56.884Z,27.111816
2022-09-04T10:35:05.555Z,27.252808
2022-09-04T10:36:15.346Z,27.353516
2022-09-04T10:37:24.022Z,27.293091
2022-09-04T10:38:33.695Z,27.303162
2022-09-04T10:39:43.469Z,27.474365
2022-09-04T10:40:51.637Z,27.776489
2022-09-04T10:42:00.746Z,28.078613
2022-09-04T10:43:09.422Z,28.491516
2022-09-04T10:44:17.198Z,28.692932
2022-09-04T10:45:26.902Z,28.592224
2022-09-04T10:46:34.516Z,28.370667
2022-09-04T10:47:44.214Z,28.249817
2022-09-04T10:48:53.903Z,27.816772
2022-09-04T10:50:01.536Z,27.272949
2022-09-04T10:51:11.181Z,27.051392
2022-09-04T10:52:20.881Z,27.262878
2022-09-04T10:53:31.377Z,27.595215
2022-09-04T10:54:39.203Z,28.048401
2022-09-04T10:55:47.855Z,28.451233
2022-09-04T10:56:57.520Z,28.723145
2022-09-04T10:58:07.190Z,29.005127
2022-09-04T10:59:14.975Z,28.944702
2022-09-04T11:00:24.658Z,29.075623
2022-09-04T11:01:32.443Z,29.16626
2022-09-04T11:02:41.095Z,29.377747
2022-09-04T11:03:50.628Z,29.609375
2022-09-04T11:04:58.304Z,29.649658
2022-09-04T11:06:06.985Z,29.387817
2022-09-04T11:07:16.675Z,29.095764
2022-09-04T11:08:25.302Z,28.854065
2022-09-04T11:09:33.970Z,28.703003
2022-09-04T11:10:42.690Z,28.622437
2022-09-04T11:11:51.382Z,28.813782
2022-09-04T11:13:01.113Z,28.984985
2022-09-04T11:14:09.781Z,28.984985
2022-09-04T11:15:18.439Z,28.864136
2022-09-04T11:16:28.257Z,28.783569
2022-09-04T11:17:35.859Z,28.672791
2022-09-04T11:18:45.561Z,28.622437
2022-09-04T11:19:54.252Z,28.471375
2022-09-04T11:21:03.082Z,28.259888
2022-09-04T11:22:12.775Z,28.108826
2022-09-04T11:23:22.512Z,27.957764
2022-09-04T11:24:31.126Z,27.826843
2022-09-04T11:25:39.808Z,27.645569
2022-09-04T11:26:47.463Z,27.323303
2022-09-04T11:27:56.163Z,27.03125
2022-09-04T11:29:04.882Z,26.950684
2022-09-04T11:30:13.586Z,26.749268
2022-09-04T11:31:24.363Z,26.578064
2022-09-04T11:32:32.928Z,26.557922
2022-09-04T11:33:42.632Z,26.598206
2022-09-04T11:34:52.357Z,26.708984
2022-09-04T11:36:01.057Z,26.769409
2022-09-04T11:37:10.709Z,26.77948
2022-09-04T11:38:19.385Z,26.739197
2022-09-04T11:39:28.186Z,26.678772
2022-09-04T11:40:37.832Z,26.65863
2022-09-04T11:41:46.499Z,26.64856
2022-09-04T11:42:55.180Z,26.829834
2022-09-04T11:44:04.858Z,27.071533
2022-09-04T11:45:12.546Z,27.03125
2022-09-04T11:46:22.223Z,26.708984
2022-09-04T11:47:30.875Z,26.557922
2022-09-04T11:48:39.568Z,26.376648
2022-09-04T11:49:49.307Z,26.286011
2022-09-04T11:50:59.105Z,26.255798
2022-09-04T11:52:07.822Z,26.104736
2022-09-04T11:53:17.474Z,25.983887
2022-09-04T11:54:24.117Z,25.883179
2022-09-04T11:55:33.783Z,25.90332
2022-09-04T11:56:43.487Z,25.852966
2022-09-04T11:57:51.177Z,25.963745
2022-09-04T11:59:00.856Z,26.427002
2022-09-04T12:00:08.497Z,26.829834
2022-09-04T12:01:17.175Z,27.272949
2022-09-04T12:02:26.964Z,27.66571
2022-09-04T12:03:34.627Z,28.139038
2022-09-04T12:04:44.257Z,28.622437
2022-09-04T12:05:51.958Z,28.964844
2022-09-04T12:07:02.422Z,28.743286
2022-09-04T12:08:10.357Z,28.572083
2022-09-04T12:09:19.985Z,28.259888
2022-09-04T12:10:28.666Z,28.03833
2022-09-04T12:11:37.357Z,27.776489
2022-09-04T12:12:46.006Z,27.635498
2022-09-04T12:13:55.721Z,27.514648
2022-09-04T12:15:07.401Z,27.353516
2022-09-04T12:16:14.150Z,27.142029
2022-09-04T12:17:22.731Z,26.839905
2022-09-04T12:18:30.393Z,26.749268
2022-09-04T12:19:40.076Z,26.77948
2022-09-04T12:20:47.865Z,27.111816
2022-09-04T12:21:56.573Z,27.474365
2022-09-04T12:23:06.283Z,27.776489
2022-09-04T12:24:14.941Z,28.199463
2022-09-04T12:25:24.651Z,28.763428
2022-09-04T12:26:33.316Z,29.347534
2022-09-04T12:27:44.006Z,29.649658
2022-09-04T12:28:53.677Z,30.062561
2022-09-04T12:30:02.324Z,30.535889
2022-09-04T12:31:10.992Z,30.8078
2022-09-04T12:32:20.669Z,30.435181
2022-09-04T12:33:27.299Z,30.092773
2022-09-04T12:34:36.967Z,30.435181
2022-09-04T12:35:45.686Z,30.616455
2022-09-04T12:36:54.358Z,30.838013
2022-09-04T12:38:04.087Z,30.606384
2022-09-04T12:39:13.735Z,30.566101
2022-09-04T12:40:22.439Z,30.686951
2022-09-04T12:41:32.093Z,31.019287
2022-09-04T12:42:40.826Z,31.361694
2022-09-04T12:43:50.490Z,31.140137
2022-09-04T12:44:59.183Z,31.291199
2022-09-04T12:46:08.981Z,31.05957
2022-09-04T12:47:18.518Z,31.150208
2022-09-04T12:48:26.212Z,31.18042
2022-09-04T12:49:34.674Z,31.422119
2022-09-04T12:50:43.521Z,31.472473
2022-09-04T12:51:53.178Z,31.361694
2022-09-04T12:53:02.838Z,31.371765
2022-09-04T12:54:11.628Z,31.140137
2022-09-04T12:55:19.300Z,30.42511
2022-09-04T12:56:29.920Z,29.971924
2022-09-04T12:57:38.594Z,29.528809
2022-09-04T12:58:47.335Z,29.075623
2022-09-04T12:59:55.997Z,28.602295
2022-09-04T13:01:04.741Z,28.269958
2022-09-04T13:02:14.452Z,27.867126
2022-09-04T13:03:23.049Z,27.635498
2022-09-04T13:04:30.691Z,27.474365
2022-09-04T13:05:41.825Z,27.222595
2022-09-04T13:06:53.458Z,27.142029
2022-09-04T13:07:59.714Z,27.111816
2022-09-04T13:09:09.393Z,27.021179
2022-09-04T13:10:18.087Z,26.90033